Time;durP1;ratioP1;P1;durP2;ratioP2;P2;SDS_P1;SDS_P2;PMS_P1;PMS_P2;Temp;Humidity;BMP_temperature;BMP_pressure;BME280_temperature;BME280_humidity;BME280_pressure;Samples;Min_cycle;Max_cycle;Signal;HPM_P1;HPM_P2
2022/02/23 00:02:21;;;;;;;8.70;2.03;;;;;;;5.59;91.79;102239.16;5137054;27;20031;-36
2022/02/23 00:04:46;;;;;;;10.87;2.83;;;;;;;5.56;91.25;102243.03;5137713;27;20034;-36
2022/02/23 00:07:12;;;;;;;11.50;2.73;;;;;;;5.45;90.87;102237.94;5137597;27;20027;-36
2022/02/23 00:09:37;;;;;;;8.60;2.17;;;;;;;5.51;91.29;102252.53;5137490;27;20028;-36
2022/02/23 00:12:03;;;;;;;10.37;2.40;;;;;;;5.52;91.27;102259.59;5137069;27;20160;-36
2022/02/23 00:14:28;;;;;;;11.07;3.42;;;;;;;5.49;91.36;102265.28;5137838;27;20458;-36
2022/02/23 00:16:54;;;;;;;12.63;2.87;;;;;;;5.41;92.32;102258.03;5137499;27;20407;-36
2022/02/23 00:19:20;;;;;;;8.27;2.33;;;;;;;5.41;92.50;102264.25;5135598;27;20130;-36
2022/02/23 00:21:45;;;;;;;10.60;2.67;;;;;;;5.43;92.60;102264.09;5136584;27;20059;-36
2022/02/23 00:24:10;;;;;;;12.00;3.47;;;;;;;5.31;92.27;102257.34;5137254;27;20027;-36
2022/02/23 00:26:36;;;;;;;8.37;2.60;;;;;;;5.33;92.75;102266.91;5137033;27;20106;-43
2022/02/23 00:29:03;;;;;;;8.53;2.53;;;;;;;5.33;92.84;102272.28;5137064;27;20452;-36
2022/02/23 00:31:28;;;;;;;14.50;3.72;;;;;;;5.32;92.98;102272.41;5137291;27;20051;-36
2022/02/23 00:33:54;;;;;;;13.00;2.40;;;;;;;5.28;92.65;102279.13;5136707;27;20055;-36
2022/02/23 00:36:19;;;;;;;10.53;2.70;;;;;;;5.26;92.98;102281.94;5136668;27;20023;-36
2022/02/23 00:38:44;;;;;;;8.93;2.47;;;;;;;5.24;93.46;102283.13;5136650;27;20479;-36
2022/02/23 00:41:10;;;;;;;10.40;2.30;;;;;;;5.22;93.23;102285.97;5136786;27;20383;-36
2022/02/23 00:43:36;;;;;;;15.23;2.67;;;;;;;5.23;93.77;102292.19;5136134;27;20031;-36
2022/02/23 00:46:02;;;;;;;13.13;2.90;;;;;;;5.15;93.90;102283.09;5136614;27;20024;-36
2022/02/23 00:48:27;;;;;;;11.25;3.10;;;;;;;5.09;93.58;102280.22;5136606;27;20030;-36
2022/02/23 00:50:52;;;;;;;10.57;3.10;;;;;;;5.18;94.00;102292.66;5136353;27;20450;-36
2022/02/23 00:53:18;;;;;;;11.17;2.77;;;;;;;5.16;94.66;102300.00;5136051;27;20075;-36
2022/02/23 00:55:43;;;;;;;9.10;2.33;;;;;;;5.15;94.28;102301.03;5136628;27;20039;-36
2022/02/23 00:58:09;;;;;;;11.37;2.57;;;;;;;5.10;94.08;102303.34;5136299;27;20265;-36
2022/02/23 01:00:35;;;;;;;9.57;2.50;;;;;;;5.03;94.60;102299.63;5135812;27;20023;-36
2022/02/23 01:03:00;;;;;;;9.30;2.33;;;;;;;4.95;93.92;102287.00;5136361;27;20096;-35
2022/02/23 01:05:25;;;;;;;12.00;2.70;;;;;;;4.96;94.21;102309.28;5136330;27;20024;-36
2022/02/23 01:07:51;;;;;;;11.60;2.60;;;;;;;4.98;94.89;102309.97;5136008;27;20027;-36
2022/02/23 01:10:16;;;;;;;12.23;2.93;;;;;;;4.89;94.50;102291.16;5136560;27;20029;-36
2022/02/23 01:12:42;;;;;;;11.32;2.40;;;;;;;4.96;95.42;102306.59;5135998;27;20102;-36
2022/02/23 01:15:08;;;;;;;10.63;2.43;;;;;;;4.90;94.96;102316.97;5136297;27;20034;-35
2022/02/23 01:17:33;;;;;;;12.65;3.22;;;;;;;4.91;94.66;102313.28;5135454;27;20035;-35
2022/02/23 01:19:59;;;;;;;8.80;2.80;;;;;;;4.90;94.67;102318.81;5136271;27;20118;-36
2022/02/23 01:22:25;;;;;;;14.18;2.95;;;;;;;4.89;94.62;102317.97;5135992;27;20356;-35
2022/02/23 01:24:50;;;;;;;8.88;2.15;;;;;;;4.87;94.22;102321.78;5135927;27;20031;-35
2022/02/23 01:27:16;;;;;;;9.70;2.53;;;;;;;4.84;94.61;102325.66;5135231;27;20026;-35
2022/02/23 01:29:41;;;;;;;9.50;3.20;;;;;;;4.81;94.53;102328.63;5135349;27;20078;-35
2022/02/23 01:32:07;;;;;;;14.03;2.67;;;;;;;4.81;94.59;102323.25;5135162;27;20269;-35
2022/02/23 01:34:32;;;;;;;10.15;2.35;;;;;;;4.74;94.14;102326.75;5135475;27;20023;-35
2022/02/23 01:36:58;;;;;;;12.40;2.70;;;;;;;4.78;94.23;102338.81;5135194;27;20028;-36
2022/02/23 01:39:23;;;;;;;9.73;2.87;;;;;;;4.77;94.46;102331.78;5134644;27;20371;-36
2022/02/23 01:41:48;;;;;;;18.87;2.70;;;;;;;4.72;93.79;102332.25;5134973;27;20038;-35
2022/02/23 01:44:14;;;;;;;13.37;2.70;;;;;;;4.56;94.61;102310.69;5135495;27;20019;-35
2022/02/23 01:46:39;;;;;;;10.57;2.33;;;;;;;4.69;94.40;102337.09;5134910;27;20114;-35
2022/02/23 01:49:04;;;;;;;8.57;2.67;;;;;;;4.62;94.76;102351.09;5135537;27;20031;-35
2022/02/23 01:51:30;;;;;;;12.10;2.43;;;;;;;4.48;94.96;102329.38;5134919;27;20034;-36
2022/02/23 01:53:55;;;;;;;9.82;2.58;;;;;;;4.43;95.06;102334.34;5135164;27;20071;-36
2022/02/23 01:56:21;;;;;;;14.00;2.47;;;;;;;4.49;95.26;102356.03;5135114;27;20024;-36
2022/02/23 01:58:46;;;;;;;10.13;2.10;;;;;;;4.48;95.49;102350.78;5135076;27;20072;-36
2022/02/23 02:01:12;;;;;;;14.73;3.43;;;;;;;4.36;95.66;102337.66;5134385;27;20039;-36
2022/02/23 02:03:38;;;;;;;11.52;2.20;;;;;;;4.43;96.15;102345.06;5134657;27;20119;-36
2022/02/23 02:06:03;;;;;;;9.65;2.55;;;;;;;4.37;96.02;102358.06;5134569;27;20113;-36
2022/02/23 02:08:28;;;;;;;13.00;2.57;;;;;;;4.36;96.22;102353.72;5134944;27;20112;-36
2022/02/23 02:10:54;;;;;;;13.37;2.83;;;;;;;4.37;96.55;102359.91;5134925;27;20033;-36
2022/02/23 02:13:19;;;;;;;9.97;2.70;;;;;;;4.23;96.10;102353.25;5134787;27;20023;-36
2022/02/23 02:15:45;;;;;;;12.43;2.27;;;;;;;4.32;96.21;102371.09;5134820;27;20461;-36
2022/02/23 02:18:10;;;;;;;11.43;2.70;;;;;;;4.29;95.91;102366.03;5134745;27;20030;-36
2022/02/23 02:20:36;;;;;;;12.90;2.22;;;;;;;4.30;96.01;102369.56;5135262;27;20474;-36
2022/02/23 02:23:01;;;;;;;10.93;2.87;;;;;;;4.29;96.05;102375.91;5134550;27;20019;-36
2022/02/23 02:25:26;;;;;;;9.57;2.43;;;;;;;4.32;96.19;102389.84;5134972;27;20027;-36
2022/02/23 02:27:52;;;;;;;9.53;2.57;;;;;;;4.25;96.20;102378.06;5134137;27;20034;-36
2022/02/23 02:30:17;;;;;;;11.13;2.30;;;;;;;4.24;96.30;102387.06;5134592;27;20019;-36
2022/02/23 02:32:43;;;;;;;10.13;2.80;;;;;;;4.25;96.54;102390.59;5134691;27;20344;-35
2022/02/23 02:35:09;;;;;;;13.33;3.23;;;;;;;4.17;96.42;102379.81;5135059;27;20578;-36
2022/02/23 02:37:34;;;;;;;12.57;2.78;;;;;;;4.17;96.05;102380.63;5133250;27;20038;-36
2022/02/23 02:40:00;;;;;;;12.57;2.43;;;;;;;4.24;96.49;102391.56;5134741;27;20071;-36
2022/02/23 02:42:25;;;;;;;12.37;2.60;;;;;;;4.25;95.99;102404.84;5134397;27;20058;-36
2022/02/23 02:44:51;;;;;;;10.30;2.60;;;;;;;4.12;95.95;102390.97;5134454;27;20030;-36
2022/02/23 02:47:16;;;;;;;12.55;2.70;;;;;;;4.18;96.05;102405.56;5134222;27;20024;-35
2022/02/23 02:49:42;;;;;;;8.48;2.22;;;;;;;4.17;96.28;102402.06;5134778;28;20023;-36
2022/02/23 02:52:07;;;;;;;11.80;2.70;;;;;;;4.13;96.51;102404.19;5134206;28;20379;-36
2022/02/23 02:54:33;;;;;;;10.23;2.73;;;;;;;4.17;96.51;102404.75;5133435;28;20035;-36
2022/02/23 02:56:59;;;;;;;12.05;2.38;;;;;;;4.13;96.62;102406.88;5134232;28;20030;-36
2022/02/23 02:59:25;;;;;;;12.45;2.78;;;;;;;4.09;96.66;102404.63;5134579;28;20391;-36
2022/02/23 03:01:50;;;;;;;10.77;2.50;;;;;;;4.08;96.79;102408.31;5134210;28;20023;-36
2022/02/23 03:04:16;;;;;;;10.73;2.30;;;;;;;4.03;96.81;102400.72;5134262;28;20067;-36
2022/02/23 03:06:41;;;;;;;9.35;2.40;;;;;;;4.05;96.55;102413.97;5132931;28;20035;-36
2022/02/23 03:09:07;;;;;;;11.75;3.40;;;;;;;3.98;96.51;102412.88;5134109;28;20031;-45
2022/02/23 03:11:33;;;;;;;9.25;2.42;;;;;;;3.99;96.54;102417.25;5134352;28;20027;-36
2022/02/23 03:13:58;;;;;;;8.68;2.38;;;;;;;3.99;96.62;102427.94;5134345;28;20025;-36
2022/02/23 03:16:24;;;;;;;8.93;2.40;;;;;;;3.86;97.07;102417.59;5136290;27;20050;-36
2022/02/23 03:18:49;;;;;;;14.87;2.70;;;;;;;3.94;96.50;102425.72;5138103;27;20093;-36
2022/02/23 03:21:14;;;;;;;8.30;2.40;;;;;;;3.88;96.49;102429.00;5138170;27;20115;-36
2022/02/23 03:23:41;;;;;;;14.73;2.50;;;;;;;3.83;96.93;102429.44;5138121;27;20033;-36
2022/02/23 03:26:09;;;;;;;10.10;2.75;;;;;;;3.86;96.66;102439.84;5137320;27;20047;-36
2022/02/23 03:28:35;;;;;;;10.00;2.83;;;;;;;3.84;97.04;102431.13;5138189;27;20051;-36
2022/02/23 03:31:00;;;;;;;11.23;2.67;;;;;;;3.84;96.49;102433.78;5136890;27;20031;-36
2022/02/23 03:33:25;;;;;;;10.27;2.60;;;;;;;3.78;97.16;102421.00;5137755;27;20511;-36
2022/02/23 03:35:51;;;;;;;11.47;3.10;;;;;;;3.84;97.32;102433.78;5138006;27;20023;-36
2022/02/23 03:38:16;;;;;;;10.38;2.45;;;;;;;3.84;97.55;102433.78;5138550;27;20063;-36
2022/02/23 03:40:42;;;;;;;16.20;3.60;;;;;;;3.74;97.44;102437.50;5138198;27;20114;-36
2022/02/23 03:43:09;;;;;;;9.27;2.38;;;;;;;3.62;97.25;102426.16;5137446;27;20030;-36
2022/02/23 03:45:35;;;;;;;11.93;2.25;;;;;;;3.71;97.92;102444.00;5138417;27;20385;-36
2022/02/23 03:48:01;;;;;;;10.57;2.88;;;;;;;3.65;97.50;102439.22;5137241;27;20019;-35
2022/02/23 03:50:27;;;;;;;10.50;2.67;;;;;;;3.69;97.27;102445.13;5138434;27;20030;-36
2022/02/23 03:52:52;;;;;;;10.63;2.33;;;;;;;3.68;97.62;102448.81;5137488;27;20023;-36
2022/02/23 03:55:18;;;;;;;13.00;2.77;;;;;;;3.67;97.48;102442.63;5138276;27;20027;-36
2022/02/23 03:57:44;;;;;;;13.82;2.75;;;;;;;3.67;98.00;102452.47;5137387;27;20031;-36
2022/02/23 04:00:12;;;;;;;10.80;2.60;;;;;;;3.59;98.35;102466.56;5137468;27;20134;-36
2022/02/23 04:02:38;;;;;;;9.15;2.17;;;;;;;3.50;98.01;102457.56;5137268;27;20030;-36
2022/02/23 04:05:06;;;;;;;6.57;2.20;;;;;;;3.58;97.83;102467.56;5138116;27;20366;-36
2022/02/23 04:07:32;;;;;;;10.38;2.83;;;;;;;3.58;98.03;102467.56;5137029;27;20031;-36
2022/02/23 04:09:57;;;;;;;10.05;2.97;;;;;;;3.58;97.97;102467.56;5137553;27;20434;-36
2022/02/23 04:12:24;;;;;;;18.53;3.20;;;;;;;3.54;98.03;102464.31;5136850;27;20479;-37
2022/02/23 04:14:49;;;;;;;;;;;;;;;3.65;98.21;102482.03;5138003;27;20023;-35
2022/02/23 04:17:14;;;;;;;11.23;2.75;;;;;;;3.63;98.19;102477.81;5136784;27;20014;-36
2022/02/23 04:19:39;;;;;;;8.87;2.37;;;;;;;3.59;97.72;102487.97;5137480;27;20030;-36
2022/02/23 04:22:06;;;;;;;13.67;2.40;;;;;;;3.56;97.67;102489.13;5137522;27;20027;-36
2022/02/23 04:24:32;;;;;;;10.27;2.67;;;;;;;3.47;98.39;102481.13;5137415;27;20396;-35
2022/02/23 04:26:57;;;;;;;10.73;2.63;;;;;;;3.54;97.99;102490.22;5136166;27;20034;-36
2022/02/23 04:29:22;;;;;;;15.13;2.97;;;;;;;3.56;98.60;102493.59;5136626;27;20069;-35
2022/02/23 04:31:48;;;;;;;10.43;2.97;;;;;;;3.48;98.84;102488.16;5136703;27;20031;-36
2022/02/23 04:34:14;;;;;;;12.80;3.50;;;;;;;3.40;98.53;102494.19;5137460;27;20578;-36
2022/02/23 04:36:39;;;;;;;13.95;2.42;;;;;;;3.43;98.67;102498.44;5136907;27;20054;-36
2022/02/23 04:39:06;;;;;;;10.57;2.60;;;;;;;3.41;99.04;102505.75;5137105;27;20031;-35
2022/02/23 04:41:31;;;;;;;14.95;3.13;;;;;;;3.39;99.27;102503.22;5136796;27;20027;-36
2022/02/23 04:43:57;;;;;;;10.17;2.87;;;;;;;3.38;99.15;102498.84;5136489;27;20030;-36
2022/02/23 04:46:23;;;;;;;13.70;2.60;;;;;;;3.29;98.78;102497.88;5135199;27;20770;-36
2022/02/23 04:48:50;;;;;;;12.97;2.73;;;;;;;3.37;99.14;102510.56;5136463;27;20110;-36
2022/02/23 04:51:16;;;;;;;10.57;2.75;;;;;;;3.31;99.27;102503.06;5136428;27;20344;-36
2022/02/23 04:53:41;;;;;;;;;;;;;;;3.43;98.80;102509.13;5136760;27;20030;-36
2022/02/23 04:56:07;;;;;;;10.98;2.30;;;;;;;3.39;99.09;102515.75;5136880;27;19911;-36
2022/02/23 04:58:32;;;;;;;14.07;2.90;;;;;;;3.34;99.46;102519.69;5136916;27;20420;-35
2022/02/23 05:00:58;;;;;;;13.17;3.67;;;;;;;3.32;99.21;102513.66;5136499;27;20248;-35
2022/02/23 05:03:23;;;;;;;12.23;2.38;;;;;;;3.30;99.31;102510.25;5135805;27;20029;-35
2022/02/23 05:05:49;;;;;;;10.80;3.00;;;;;;;3.29;99.97;102502.38;5136151;27;20069;-35
2022/02/23 05:08:18;;;;;;;12.75;2.35;;;;;;;3.27;99.29;102504.34;5135978;27;20022;-35
2022/02/23 05:10:44;;;;;;;12.07;2.70;;;;;;;3.31;99.41;102521.78;5136796;27;20390;-35
2022/02/23 05:13:10;;;;;;;11.60;2.80;;;;;;;3.28;99.35;102520.25;5135926;27;20031;-36
2022/02/23 05:15:36;;;;;;;8.55;2.38;;;;;;;3.23;98.96;102521.69;5136376;27;20069;-36
2022/02/23 05:18:04;;;;;;;8.85;2.15;;;;;;;3.25;99.53;102523.22;5135623;27;20023;-36
2022/02/23 05:20:29;;;;;;;8.70;2.10;;;;;;;3.25;99.90;102530.38;5136106;27;20448;-35
2022/02/23 05:22:55;;;;;;;11.53;3.33;;;;;;;3.23;99.04;102525.19;5135511;27;20020;-35
2022/02/23 05:25:20;;;;;;;11.93;2.50;;;;;;;3.26;99.78;102532.91;5136495;27;20030;-35
2022/02/23 05:27:45;;;;;;;10.57;3.17;;;;;;;3.05;100.00;102490.31;5135358;27;20055;-36
2022/02/23 05:30:11;;;;;;;10.10;2.43;;;;;;;3.22;100.00;102531.53;5136042;27;20450;-35
2022/02/23 05:32:37;;;;;;;9.85;2.30;;;;;;;3.20;99.54;102530.81;5135493;27;20023;-35
2022/02/23 05:35:04;;;;;;;10.65;3.10;;;;;;;3.23;99.77;102538.56;5135444;27;20027;-36
2022/02/23 05:37:30;;;;;;;12.02;3.30;;;;;;;3.14;99.77;102536.72;5135332;27;20085;-36
2022/02/23 05:39:56;;;;;;;10.02;2.78;;;;;;;3.17;100.00;102540.94;5135586;27;20035;-36
2022/02/23 05:42:21;;;;;;;8.33;2.80;;;;;;;3.16;100.00;102537.41;5135337;27;20038;-36
2022/02/23 05:44:46;;;;;;;5.90;2.07;;;;;;;3.20;100.00;102536.16;5134634;27;20019;-36
2022/02/23 05:47:12;;;;;;;10.20;2.53;;;;;;;3.11;100.00;102545.03;5134853;27;20019;-36
2022/02/23 05:49:37;;;;;;;11.37;2.90;;;;;;;3.11;100.00;102545.03;5135559;27;20031;-40
2022/02/23 05:52:03;;;;;;;11.13;2.50;;;;;;;3.09;100.00;102538.97;5135236;27;20455;-37
2022/02/23 05:54:30;;;;;;;;;;;;;;;3.14;100.00;102547.44;5135913;27;20418;-35
2022/02/23 05:56:56;;;;;;;13.43;2.67;;;;;;;3.03;100.00;102536.88;5135133;27;19907;-36
2022/02/23 05:59:21;;;;;;;10.00;2.43;;;;;;;3.00;100.00;102534.47;5134839;27;20391;-36
2022/02/23 06:01:47;;;;;;;9.07;2.70;;;;;;;2.98;100.00;102548.00;5134732;27;20031;-36
2022/02/23 06:04:12;;;;;;;9.97;2.87;;;;;;;2.99;100.00;102546.16;5135615;27;20348;-36
2022/02/23 06:06:37;;;;;;;6.90;2.57;;;;;;;2.94;100.00;102551.06;5134148;27;20027;-37
2022/02/23 06:09:02;;;;;;;11.60;2.77;;;;;;;2.83;100.00;102536.00;5135370;27;20031;-35
2022/02/23 06:11:28;;;;;;;16.17;2.90;;;;;;;2.87;100.00;102545.44;5135437;27;20405;-35
2022/02/23 06:13:53;;;;;;;7.00;1.90;;;;;;;2.80;100.00;102557.66;5134842;27;20022;-36
2022/02/23 06:16:23;;;;;;;13.00;3.08;;;;;;;2.75;100.00;102534.03;5134786;27;20030;-36
2022/02/23 06:18:49;;;;;;;12.40;3.50;;;;;;;2.71;100.00;102551.31;5134489;27;20376;-36
2022/02/23 06:21:15;;;;;;;10.07;2.70;;;;;;;2.79;100.00;102556.81;5135554;27;20420;-36
2022/02/23 06:23:40;;;;;;;10.32;3.00;;;;;;;2.81;100.00;102556.69;5134584;27;20038;-36
2022/02/23 06:26:06;;;;;;;14.55;2.80;;;;;;;2.83;100.00;102557.38;5135276;27;20160;-35
2022/02/23 06:28:32;;;;;;;12.60;3.30;;;;;;;2.61;100.00;102533.59;5133106;27;20403;-36
2022/02/23 06:30:57;;;;;;;8.20;3.03;;;;;;;2.68;100.00;102548.91;5135330;27;20255;-36
2022/02/23 06:33:25;;;;;;;9.20;3.33;;;;;;;2.77;100.00;102563.28;5133186;27;20457;-35
2022/02/23 06:35:51;;;;;;;13.25;3.63;;;;;;;2.82;100.00;102571.72;5134508;27;20051;-36
2022/02/23 06:38:17;;;;;;;;;;;;;;;2.81;100.00;102560.19;5135050;27;20050;-35
2022/02/23 06:40:42;;;;;;;9.32;4.05;;;;;;;2.74;100.00;102559.06;5134511;27;20371;-36
2022/02/23 06:43:08;;;;;;;12.43;3.40;;;;;;;2.71;100.00;102556.66;5134629;27;20022;-35
2022/02/23 06:45:34;;;;;;;13.20;4.45;;;;;;;2.68;100.00;102569.44;5134320;27;20118;-36
2022/02/23 06:48:00;;;;;;;11.98;3.83;;;;;;;2.63;100.00;102553.81;5134202;27;20035;-36
2022/02/23 06:50:25;;;;;;;10.67;3.77;;;;;;;2.67;100.00;102557.91;5134381;27;20023;-35
2022/02/23 06:52:53;;;;;;;9.70;3.13;;;;;;;2.75;100.00;102578.59;5133975;28;20030;-36
2022/02/23 06:55:19;;;;;;;11.75;3.78;;;;;;;2.76;100.00;102581.13;5134692;28;20568;-36
2022/02/23 06:57:45;;;;;;;12.20;4.03;;;;;;;2.66;100.00;102553.56;5134894;28;20058;-36
2022/02/23 07:00:11;;;;;;;;;;;;;;;2.79;100.00;102580.88;5135565;28;20351;-36
2022/02/23 07:02:36;;;;;;;11.35;3.90;;;;;;;2.77;100.00;102576.63;5134232;27;19939;-36
2022/02/23 07:05:06;;;;;;;8.93;3.43;;;;;;;2.78;100.00;102579.19;5134160;28;20367;-36
2022/02/23 07:07:32;;;;;;;10.15;4.18;;;;;;;2.76;100.00;102582.97;5134264;28;20375;-35
2022/02/23 07:09:58;;;;;;;11.45;4.68;;;;;;;2.78;100.00;102581.84;5134270;28;20027;-36
2022/02/23 07:12:23;;;;;;;16.83;4.57;;;;;;;2.75;100.00;102579.44;5134277;28;20087;-37
2022/02/23 07:14:49;;;;;;;12.30;4.40;;;;;;;2.80;100.00;102584.38;5134843;28;20268;-36
2022/02/23 07:17:14;;;;;;;9.68;4.22;;;;;;;2.79;100.00;102586.22;5134183;28;20027;-35
2022/02/23 07:19:40;;;;;;;14.82;4.80;;;;;;;2.79;100.00;102574.69;5134404;28;20478;-37
2022/02/23 07:22:06;;;;;;;14.38;4.70;;;;;;;2.82;100.00;102591.25;5134202;28;20024;-36
2022/02/23 07:24:32;;;;;;;13.03;4.87;;;;;;;2.93;100.00;102592.13;5134109;28;20524;-35
2022/02/23 07:26:58;;;;;;;10.70;4.80;;;;;;;2.87;100.00;102590.00;5134039;27;20110;-35
2022/02/23 07:29:24;;;;;;;;;;;;;;;2.99;100.00;102594.25;5133166;28;20057;-35
2022/02/23 07:31:50;;;;;;;11.17;4.53;;;;;;;3.03;100.00;102593.84;5134168;27;20367;-37
2022/02/23 07:34:16;;;;;;;10.38;4.70;;;;;;;3.05;100.00;102599.88;5134129;28;20267;-36
2022/02/23 07:36:42;;;;;;;13.20;5.47;;;;;;;3.09;100.00;102598.63;5133906;28;20027;-35
2022/02/23 07:39:07;;;;;;;11.88;3.97;;;;;;;3.27;100.00;102597.91;5134208;28;20058;-36
2022/02/23 07:41:33;;;;;;;14.38;5.85;;;;;;;3.21;100.00;102595.81;5133982;28;20027;-36
2022/02/23 07:43:59;;;;;;;13.00;6.00;;;;;;;3.18;100.00;102590.78;5134422;28;20102;-37
2022/02/23 07:46:24;;;;;;;12.25;5.55;;;;;;;3.32;100.00;102604.56;5134374;28;20076;-35
2022/02/23 07:48:55;;;;;;;12.48;5.88;;;;;;;3.41;100.00;102610.03;5133886;28;20030;-36
2022/02/23 07:51:21;;;;;;;14.55;5.20;;;;;;;3.48;100.00;102614.69;5132490;28;20380;-36
2022/02/23 07:53:48;;;;;;;15.43;5.87;;;;;;;3.48;100.00;102604.00;5133878;28;20026;-36
2022/02/23 07:56:14;;;;;;;14.23;6.32;;;;;;;3.61;100.00;102620.59;5134765;28;20019;-37
2022/02/23 07:58:39;;;;;;;14.95;6.70;;;;;;;3.65;100.00;102621.16;5133852;28;20498;-36
2022/02/23 08:01:05;;;;;;;16.50;6.72;;;;;;;3.66;100.00;102604.13;5134245;28;20039;-36
2022/02/23 08:03:32;;;;;;;13.18;6.65;;;;;;;3.74;100.00;102609.59;5135666;27;20027;-36
2022/02/23 08:05:58;;;;;;;10.35;6.13;;;;;;;3.88;100.00;102619.84;5137334;27;20035;-36
2022/02/23 08:08:23;;;;;;;16.17;7.15;;;;;;;3.88;100.00;102627.03;5137735;27;20026;-36
2022/02/23 08:10:49;;;;;;;13.23;6.07;;;;;;;3.93;100.00;102631.97;5137622;27;20471;-36
2022/02/23 08:13:15;;;;;;;15.27;6.53;;;;;;;4.01;100.00;102627.59;5138265;27;20340;-36
2022/02/23 08:21:17;;;;;;;14.60;6.93;;;;;;;4.11;100.00;102614.19;5137890;27;20175;-36
2022/02/23 08:23:45;;;;;;;14.68;6.55;;;;;;;4.22;100.00;102616.69;5137046;27;20057;-37
2022/02/23 08:26:14;;;;;;;11.65;6.30;;;;;;;4.30;100.00;102616.78;5136542;27;20387;-37
2022/02/23 08:28:39;;;;;;;17.00;6.45;;;;;;;4.38;100.00;102622.25;5135420;27;20471;-36
2022/02/23 08:31:06;;;;;;;13.73;6.85;;;;;;;4.49;100.00;102621.25;5137005;27;20027;-35
2022/02/23 08:33:31;;;;;;;14.55;6.65;;;;;;;4.56;100.00;102625.00;5136567;27;20039;-37
2022/02/23 08:35:57;;;;;;;12.55;6.50;;;;;;;4.70;100.00;102614.78;5137074;27;20038;-36
2022/02/23 08:38:23;;;;;;;12.73;6.75;;;;;;;4.75;100.00;102617.88;5136970;27;20475;-36
2022/02/23 08:40:48;;;;;;;13.88;6.90;;;;;;;4.83;99.91;102617.94;5137003;27;20139;-37
2022/02/23 08:43:13;;;;;;;11.83;6.30;;;;;;;4.89;99.93;102623.56;5136608;27;20083;-37
2022/02/23 08:45:39;;;;;;;14.20;6.40;;;;;;;4.93;98.33;102625.94;5136802;27;20031;-37
2022/02/23 08:48:05;;;;;;;13.10;6.43;;;;;;;5.01;98.74;102624.19;5136465;27;20118;-35
2022/02/23 08:50:31;;;;;;;15.30;6.68;;;;;;;5.04;97.84;102621.22;5137369;27;20447;-36
2022/02/23 08:52:57;;;;;;;16.00;7.20;;;;;;;4.99;98.10;102603.91;5136153;27;20035;-36
2022/02/23 08:55:23;;;;;;;11.93;6.20;;;;;;;5.17;98.61;102626.19;5136818;27;20027;-43
2022/02/23 08:57:49;;;;;;;13.45;5.72;;;;;;;5.28;98.57;102625.16;5136404;27;20118;-36
2022/02/23 09:00:15;;;;;;;15.75;6.07;;;;;;;5.32;98.27;102610.41;5137150;27;20034;-36
2022/02/23 09:02:40;;;;;;;13.63;5.72;;;;;;;5.48;97.58;102629.38;5135963;27;20029;-36
2022/02/23 09:05:06;;;;;;;14.27;6.33;;;;;;;5.58;96.84;102626.59;5136343;27;20084;-36
2022/02/23 09:07:31;;;;;;;14.07;5.90;;;;;;;5.63;96.85;102626.97;5134640;27;20798;-36
2022/02/23 09:09:57;;;;;;;13.03;5.13;;;;;;;5.66;96.60;102615.91;5136431;27;20351;-36
2022/02/23 09:12:24;;;;;;;14.77;5.57;;;;;;;5.79;96.29;102629.78;5135974;27;20463;-36
2022/02/23 09:14:51;;;;;;;18.73;6.78;;;;;;;5.88;96.81;102628.00;5136489;27;20075;-36
2022/02/23 09:17:16;;;;;;;15.65;5.60;;;;;;;5.96;96.34;102628.09;5136036;27;20495;-36
2022/02/23 09:19:42;;;;;;;17.90;6.35;;;;;;;6.07;95.29;102621.63;5135431;27;20125;-36
2022/02/23 09:22:07;;;;;;;15.17;5.30;;;;;;;6.20;95.43;102624.75;5136210;27;20023;-36
2022/02/23 09:24:32;;;;;;;12.43;5.50;;;;;;;6.28;94.52;102632.00;5136455;27;20033;-36
2022/02/23 09:27:01;;;;;;;15.13;5.80;;;;;;;6.39;95.12;102624.53;5135783;27;20398;-36
2022/02/23 09:29:27;;;;;;;11.75;5.72;;;;;;;6.47;94.36;102626.38;5135703;27;20043;-36
2022/02/23 09:31:53;;;;;;;13.25;5.78;;;;;;;6.54;93.30;102626.56;5136504;27;20116;-36
2022/02/23 09:34:20;;;;;;;14.37;5.13;;;;;;;6.65;94.37;102629.84;5135376;27;20514;-36
2022/02/23 09:36:46;;;;;;;15.13;5.40;;;;;;;6.76;93.55;102620.63;5135486;27;20379;-36
2022/02/23 09:39:11;;;;;;;12.97;5.00;;;;;;;6.86;93.33;102618.66;5135791;27;20031;-36
2022/02/23 09:41:39;;;;;;;15.23;5.33;;;;;;;6.98;93.35;102619.22;5135332;27;20030;-36
2022/02/23 09:44:05;;;;;;;14.23;5.65;;;;;;;7.05;92.30;102616.69;5135417;27;20019;-36
2022/02/23 09:46:30;;;;;;;15.77;5.75;;;;;;;7.14;91.90;102607.63;5136292;27;20030;-36
2022/02/23 09:48:58;;;;;;;14.23;4.88;;;;;;;7.24;90.43;102608.31;5135084;27;20027;-36
2022/02/23 09:51:43;;;;;;;13.65;5.38;;;;;;;7.34;90.77;102603.63;5135801;27;20027;-36
2022/02/23 09:54:17;;;;;;;18.48;5.95;;;;;;;7.41;89.95;102610.00;5135147;27;20030;-36
2022/02/23 09:56:46;;;;;;;13.80;4.70;;;;;;;7.47;89.22;102593.22;5135331;27;20023;-36
2022/02/23 09:59:12;;;;;;;20.80;4.75;;;;;;;7.65;88.25;102605.66;5136018;27;20030;-37
2022/02/23 10:01:40;;;;;;;14.45;4.45;;;;;;;7.72;86.83;102603.97;5136167;27;20034;-36
2022/02/23 10:04:07;;;;;;;10.30;3.33;;;;;;;7.75;86.19;102590.16;5133961;27;20449;-37
2022/02/23 10:06:36;;;;;;;10.93;3.83;;;;;;;7.84;85.63;102601.78;5135473;27;20115;-38
2022/02/23 10:09:10;;;;;;;11.45;3.63;;;;;;;8.04;85.35;102608.47;5134801;27;20023;-36
2022/02/23 10:11:45;;;;;;;13.02;4.28;;;;;;;8.03;85.59;102590.63;5135506;27;20039;-36
2022/02/23 10:14:11;;;;;;;12.70;3.97;;;;;;;8.02;83.47;102575.47;5134550;27;20015;-36
2022/02/23 10:16:39;;;;;;;14.13;4.28;;;;;;;8.20;82.46;102599.53;5134910;27;20059;-36
2022/02/23 10:19:08;;;;;;;14.10;3.90;;;;;;;8.26;82.93;102604.22;5133170;27;20027;-36
2022/02/23 10:21:47;;;;;;;11.18;3.28;;;;;;;8.34;81.71;102600.66;5135554;27;20031;-36
2022/02/23 10:24:29;;;;;;;12.65;3.53;;;;;;;8.39;81.50;102598.31;5134686;27;20027;-36
2022/02/23 10:26:55;;;;;;;14.93;3.75;;;;;;;8.48;80.27;102597.25;5134010;27;20027;-36
2022/02/23 10:29:31;;;;;;;9.40;3.10;;;;;;;8.61;81.08;102594.00;5133249;27;20043;-36
2022/02/23 10:31:57;;;;;;;11.65;3.65;;;;;;;8.69;81.41;102600.22;5135299;27;20043;-36
2022/02/23 10:34:24;;;;;;;9.27;3.50;;;;;;;8.73;79.55;102600.69;5134354;27;20375;-36
2022/02/23 10:37:01;;;;;;;11.80;3.35;;;;;;;8.84;78.53;102592.22;5135171;27;20095;-36
2022/02/23 10:39:43;;;;;;;13.10;3.45;;;;;;;8.96;80.69;102601.59;5134743;27;20026;-36
2022/02/23 10:42:12;;;;;;;11.48;3.10;;;;;;;8.98;78.54;102579.84;5134197;27;20079;-36
2022/02/23 10:44:43;;;;;;;12.93;3.55;;;;;;;9.08;78.32;102579.56;5134714;27;20367;-36
2022/02/23 10:47:13;;;;;;;11.50;3.55;;;;;;;9.13;78.31;102578.06;5135083;27;20530;-35
2022/02/23 10:49:39;;;;;;;8.48;3.60;;;;;;;9.27;77.20;102588.06;5134731;27;20030;-35
2022/02/23 10:52:16;;;;;;;13.75;3.97;;;;;;;9.31;77.08;102580.44;5133029;28;20395;-35
2022/02/23 10:54:41;;;;;;;12.18;3.58;;;;;;;9.36;74.45;102569.94;5133958;28;20049;-35
2022/02/23 10:57:19;;;;;;;16.87;3.90;;;;;;;9.43;73.24;102584.41;5133891;28;20027;-36
2022/02/23 10:59:44;;;;;;;10.50;2.90;;;;;;;9.43;72.95;102581.69;5134842;28;20367;-36
2022/02/23 11:02:10;;;;;;;13.13;3.60;;;;;;;9.53;74.07;102578.75;5134253;28;20027;-36
2022/02/23 11:04:36;;;;;;;;;;;;;;;9.62;73.41;102577.66;5134962;28;20031;-35
2022/02/23 11:07:01;;;;;;;11.50;3.28;;;;;;;9.62;71.76;102572.25;5134068;27;19907;-35
2022/02/23 11:09:29;;;;;;;10.30;2.75;;;;;;;9.63;71.73;102565.84;5134651;28;20023;-35
2022/02/23 11:11:55;;;;;;;12.02;3.80;;;;;;;9.54;70.54;102556.94;5133710;28;20486;-35
2022/02/23 11:14:21;;;;;;;;;;;;;;;9.78;71.93;102565.84;5135077;28;20027;-36
2022/02/23 11:16:48;;;;;;;10.00;2.75;;;;;;;9.86;72.13;102564.94;5133750;27;19908;-35
2022/02/23 11:19:17;;;;;;;9.25;3.13;;;;;;;9.96;72.84;102571.75;5133838;28;20463;-35
2022/02/23 11:21:43;;;;;;;7.75;2.42;;;;;;;10.02;71.60;102557.50;5133661;28;20065;-35
2022/02/23 11:24:09;;;;;;;10.43;3.20;;;;;;;10.00;71.22;102543.34;5133610;28;20051;-36
2022/02/23 11:26:37;;;;;;;10.27;2.88;;;;;;;10.13;68.73;102550.78;5133927;28;20072;-36
2022/02/23 11:29:27;;;;;;;10.55;2.83;;;;;;;10.13;68.71;102549.94;5134024;28;20051;-37